Tenacious — ZQHM2 — position and weather

sailwx.info

Track history (hours):
 
Tides and Currents Weather Stations Pressure Air Temp Water Temp Dewpoint Dewpoint Depression Visibility Wind Speed Wind Dir Waves Ship Positions

Tenacious (United Kingdom)

Ship's website: http://www.jst.org.uk/

Last reported at 2019-Oct-20 04:58 UTC. Time now 2019-Oct-23 00:28 UTC.
Position N 50°34' W 002°26'.

Length 65 m; beam 10.6 m; draft 4.6 m.

Type: Sailing vessel. MMSI: 235000230.

Date/timePositionNaut miles runAvg speedWind from/ knotsBaromVisibWave heightAir tempDewpointWater temp
2019-Oct-20 04:58N 50°34' W 002°26'  
2019-Oct-17 04:17N 50°34' W 002°26'0 0.0
2019-Oct-17 03:17N 50°34' W 002°26'0 0.0
2019-Oct-17 02:23N 50°34' W 002°26'0 0.0
2019-Oct-17 01:08N 50°34' W 002°26'0 0.0
2019-Oct-16 22:59N 50°34' W 002°26'0 0.0
2019-Oct-16 20:05N 50°34' W 002°26'5 0.4
2019-Oct-16 09:00N 50°30' W 002°24'5 1.1 300 / 211002.410.8 14.412.2
2019-Oct-16 04:41N 50°34' W 002°26'0 0.0
2019-Oct-16 04:29N 50°34' W 002°26'0 0.0
2019-Oct-16 03:41N 50°34' W 002°26'0 0.0
2019-Oct-16 02:28N 50°34' W 002°26'0 0.0
2019-Oct-14 22:10N 50°34' W 002°26'9 1.1
2019-Oct-14 13:17N 50°32' W 002°12'4 8.7
2019-Oct-14 12:50N 50°31' W 002°06'411.0
2019-Oct-14 12:30N 50°32' W 002°01'510.9
2019-Oct-14 12:01N 50°34' W 001°53'6 9.8
2019-Oct-14 11:26N 50°36' W 001°45'19 1.1
2019-Oct-13 18:08N 50°47' W 001°20'1 5.7
2019-Oct-13 18:01N 50°47' W 001°19'3 5.7
2019-Oct-13 17:30N 50°50' W 001°19'4 7.8
2019-Oct-13 16:57N 50°53' W 001°24'1 0.6
2019-Oct-13 15:49N 50°54' W 001°24'1 2.4
2019-Oct-13 15:30N 50°53' W 001°24'2 3.2
2019-Oct-13 15:00N 50°52' W 001°22'3 5.1
2019-Oct-13 14:30N 50°50' W 001°19'3 6.7
2019-Oct-13 14:01N 50°48' W 001°15'2 4.6
2019-Oct-13 13:31N 50°46' W 001°12'2 4.3
2019-Oct-13 13:00N 50°48' W 001°15'3 5.5
2019-Oct-13 12:31N 50°49' W 001°18'0 0.1
2019-Oct-13 11:59N 50°50' W 001°18'0 0.0
2019-Oct-13 11:29N 50°50' W 001°18'0 0.0
2019-Oct-13 10:59N 50°50' W 001°18'0 0.0
2019-Oct-13 10:29N 50°50' W 001°18'0 0.1
2019-Oct-13 09:59N 50°50' W 001°18'0 0.6
2019-Oct-13 09:30N 50°50' W 001°18'3 6.1
2019-Oct-13 09:00N 50°52' W 001°22'2 0.1
2019-Oct-12 15:18N 50°53' W 001°24'2 4.9
2019-Oct-12 14:58N 50°52' W 001°22'2 5.1
2019-Oct-12 14:30N 50°51' W 001°19'2 4.1
2019-Oct-12 14:00N 50°49' W 001°18'2 4.1
2019-Oct-12 13:30N 50°47' W 001°19'1 1.8
2019-Oct-12 13:00N 50°47' W 001°18'1 3.0
2019-Oct-12 12:30N 50°47' W 001°16'2 3.1
2019-Oct-12 12:00N 50°47' W 001°13'3 5.8
2019-Oct-12 11:30N 50°46' W 001°09'1 2.6
2019-Oct-12 11:00N 50°45' W 001°07'3 6.4
2019-Oct-12 10:30N 50°47' W 001°12'1 2.7
2019-Oct-12 10:00N 50°47' W 001°13'3 6.7
2019-Oct-12 09:31N 50°49' W 001°18'4 7.2
2019-Oct-12 09:00N 50°52' W 001°22'2 2.3
2019-Oct-12 08:00N 50°54' W 001°24'0 0.0
2019-Oct-11 10:57N 50°54' W 001°24'2 4.6
2019-Oct-11 10:30N 50°52' W 001°22'4 7.3
2019-Oct-11 10:00N 50°49' W 001°18'4 7.2
2019-Oct-11 09:30N 50°47' W 001°13'4 7.1
2019-Oct-11 09:00N 50°46' W 001°08'3 6.5
2019-Oct-11 08:30N 50°43' W 001°05'0 0.3
2019-Oct-11 08:00N 50°43' W 001°04'0 0.0
2019-Oct-11 07:21N 50°43' W 001°04'0 0.0
2019-Oct-11 07:00N 50°43' W 001°04'0 0.0
2019-Oct-11 06:30N 50°43' W 001°04'0 0.0
2019-Oct-11 05:57N 50°43' W 001°04'0 0.0
2019-Oct-11 05:30N 50°43' W 001°04'0 0.0
2019-Oct-11 04:54N 50°43' W 001°04'0 0.1
2019-Oct-11 04:30N 50°43' W 001°04'0 0.0
2019-Oct-11 03:57N 50°43' W 001°04'0 0.0
2019-Oct-11 03:27N 50°43' W 001°04'0 0.0
2019-Oct-11 03:00N 50°43' W 001°04'0 0.0
2019-Oct-11 02:30N 50°43' W 001°04'0 0.0
2019-Oct-11 02:00N 50°43' W 001°04'0 0.0
2019-Oct-11 01:30N 50°43' W 001°04'0 0.1
2019-Oct-11 01:00N 50°43' W 001°04'0 0.0
2019-Oct-11 00:30N 50°43' W 001°04'0 0.1
2019-Oct-11 00:00N 50°43' W 001°04'0 0.0
2019-Oct-10 23:30N 50°43' W 001°04'0 0.0
2019-Oct-10 23:00N 50°43' W 001°04'0 0.0
2019-Oct-10 22:27N 50°43' W 001°04'0 0.0
2019-Oct-10 22:00N 50°43' W 001°04'0 0.1
2019-Oct-10 21:27N 50°43' W 001°04'0 0.0
2019-Oct-10 20:57N 50°43' W 001°04'0 0.0
2019-Oct-10 20:27N 50°43' W 001°04'0 0.0
2019-Oct-10 20:00N 50°43' W 001°04'0 0.1
2019-Oct-10 19:30N 50°43' W 001°04'0 0.0
2019-Oct-10 18:57N 50°43' W 001°04'0 0.0
2019-Oct-10 18:27N 50°43' W 001°04'0 0.0
2019-Oct-10 17:57N 50°43' W 001°04'0 0.1
2019-Oct-10 17:21N 50°43' W 001°04'0 0.0
2019-Oct-10 16:59N 50°43' W 001°04'0 0.0
2019-Oct-10 16:30N 50°43' W 001°04'0 0.0
2019-Oct-10 15:59N 50°43' W 001°04'0 0.0
2019-Oct-10 15:29N 50°43' W 001°04'0 0.4
2019-Oct-10 15:00N 50°43' W 001°04'2 3.9
2019-Oct-10 14:30N 50°41' W 001°03'2 4.4
2019-Oct-10 14:00N 50°39' W 001°02'4 1.5
2019-Oct-10 11:24N 50°35' W 001°03'4 8.8
2019-Oct-10 11:00N 50°39' W 001°02'3 6.1
2019-Oct-10 10:30N 50°42' W 001°03'1 2.1
2019-Oct-10 09:59N 50°43' W 001°04'0 0.0
2019-Oct-10 09:26N 50°43' W 001°03'0 0.0
2019-Oct-10 08:59N 50°43' W 001°03'0 0.0
2019-Oct-10 08:29N 50°43' W 001°03'0 0.0
2019-Oct-10 07:59N 50°43' W 001°04'0 0.0
2019-Oct-10 07:26N 50°43' W 001°04'0 0.1
2019-Oct-10 06:59N 50°43' W 001°03'0 0.0
2019-Oct-10 06:29N 50°43' W 001°03'0 0.0
2019-Oct-10 05:59N 50°43' W 001°03'0 0.0
2019-Oct-10 05:26N 50°43' W 001°03'  
Track history (hours):
 
Tides and Currents Weather Stations Pressure Air Temp Water Temp Dewpoint Dewpoint Depression Visibility Wind Speed Wind Dir Waves Ship Positions

Tenacious (United Kingdom)

Ship's website: http://www.jst.org.uk/

Last reported at 2019-Oct-20 04:58 UTC. Time now 2019-Oct-23 00:28 UTC.
Position N 50°34' W 002°26'.

Length 65 m; beam 10.6 m; draft 4.6 m.

Type: Sailing vessel. MMSI: 235000230.

Date/timePositionNaut miles runAvg speedWind from/ knotsBaromVisibWave heightAir tempDewpointWater temp
2019-Oct-20 04:58N 50°34' W 002°26'  
2019-Oct-17 04:17N 50°34' W 002°26'0 0.0
2019-Oct-17 03:17N 50°34' W 002°26'0 0.0
2019-Oct-17 02:23N 50°34' W 002°26'0 0.0
2019-Oct-17 01:08N 50°34' W 002°26'0 0.0
2019-Oct-16 22:59N 50°34' W 002°26'0 0.0
2019-Oct-16 20:05N 50°34' W 002°26'5 0.4
2019-Oct-16 09:00N 50°30' W 002°24'5 1.1 300 / 211002.410.8 14.412.2
2019-Oct-16 04:41N 50°34' W 002°26'0 0.0
2019-Oct-16 04:29N 50°34' W 002°26'0 0.0
2019-Oct-16 03:41N 50°34' W 002°26'0 0.0
2019-Oct-16 02:28N 50°34' W 002°26'0 0.0
2019-Oct-14 22:10N 50°34' W 002°26'9 1.1
2019-Oct-14 13:17N 50°32' W 002°12'4 8.7
2019-Oct-14 12:50N 50°31' W 002°06'411.0
2019-Oct-14 12:30N 50°32' W 002°01'510.9
2019-Oct-14 12:01N 50°34' W 001°53'6 9.8
2019-Oct-14 11:26N 50°36' W 001°45'19 1.1
2019-Oct-13 18:08N 50°47' W 001°20'1 5.7
2019-Oct-13 18:01N 50°47' W 001°19'3 5.7
2019-Oct-13 17:30N 50°50' W 001°19'4 7.8
2019-Oct-13 16:57N 50°53' W 001°24'1 0.6
2019-Oct-13 15:49N 50°54' W 001°24'1 2.4
2019-Oct-13 15:30N 50°53' W 001°24'2 3.2
2019-Oct-13 15:00N 50°52' W 001°22'3 5.1
2019-Oct-13 14:30N 50°50' W 001°19'3 6.7
2019-Oct-13 14:01N 50°48' W 001°15'2 4.6
2019-Oct-13 13:31N 50°46' W 001°12'2 4.3
2019-Oct-13 13:00N 50°48' W 001°15'3 5.5
2019-Oct-13 12:31N 50°49' W 001°18'0 0.1
2019-Oct-13 11:59N 50°50' W 001°18'0 0.0
2019-Oct-13 11:29N 50°50' W 001°18'0 0.0
2019-Oct-13 10:59N 50°50' W 001°18'0 0.0
2019-Oct-13 10:29N 50°50' W 001°18'0 0.1
2019-Oct-13 09:59N 50°50' W 001°18'0 0.6
2019-Oct-13 09:30N 50°50' W 001°18'3 6.1
2019-Oct-13 09:00N 50°52' W 001°22'2 0.1
2019-Oct-12 15:18N 50°53' W 001°24'2 4.9
2019-Oct-12 14:58N 50°52' W 001°22'2 5.1
2019-Oct-12 14:30N 50°51' W 001°19'2 4.1
2019-Oct-12 14:00N 50°49' W 001°18'2 4.1
2019-Oct-12 13:30N 50°47' W 001°19'1 1.8
2019-Oct-12 13:00N 50°47' W 001°18'1 3.0
2019-Oct-12 12:30N 50°47' W 001°16'2 3.1
2019-Oct-12 12:00N 50°47' W 001°13'3 5.8
2019-Oct-12 11:30N 50°46' W 001°09'1 2.6
2019-Oct-12 11:00N 50°45' W 001°07'3 6.4
2019-Oct-12 10:30N 50°47' W 001°12'1 2.7
2019-Oct-12 10:00N 50°47' W 001°13'3 6.7
2019-Oct-12 09:31N 50°49' W 001°18'4 7.2
2019-Oct-12 09:00N 50°52' W 001°22'2 2.3
2019-Oct-12 08:00N 50°54' W 001°24'0 0.0
2019-Oct-11 10:57N 50°54' W 001°24'2 4.6
2019-Oct-11 10:30N 50°52' W 001°22'4 7.3
2019-Oct-11 10:00N 50°49' W 001°18'4 7.2
2019-Oct-11 09:30N 50°47' W 001°13'4 7.1
2019-Oct-11 09:00N 50°46' W 001°08'3 6.5
2019-Oct-11 08:30N 50°43' W 001°05'0 0.3
2019-Oct-11 08:00N 50°43' W 001°04'0 0.0
2019-Oct-11 07:21N 50°43' W 001°04'0 0.0
2019-Oct-11 07:00N 50°43' W 001°04'0 0.0
2019-Oct-11 06:30N 50°43' W 001°04'0 0.0
2019-Oct-11 05:57N 50°43' W 001°04'0 0.0
2019-Oct-11 05:30N 50°43' W 001°04'0 0.0
2019-Oct-11 04:54N 50°43' W 001°04'0 0.1
2019-Oct-11 04:30N 50°43' W 001°04'0 0.0
2019-Oct-11 03:57N 50°43' W 001°04'0 0.0
2019-Oct-11 03:27N 50°43' W 001°04'0 0.0
2019-Oct-11 03:00N 50°43' W 001°04'0 0.0
2019-Oct-11 02:30N 50°43' W 001°04'0 0.0
2019-Oct-11 02:00N 50°43' W 001°04'0 0.0
2019-Oct-11 01:30N 50°43' W 001°04'0 0.1
2019-Oct-11 01:00N 50°43' W 001°04'0 0.0
2019-Oct-11 00:30N 50°43' W 001°04'0 0.1
2019-Oct-11 00:00N 50°43' W 001°04'0 0.0
2019-Oct-10 23:30N 50°43' W 001°04'0 0.0
2019-Oct-10 23:00N 50°43' W 001°04'0 0.0
2019-Oct-10 22:27N 50°43' W 001°04'0 0.0
2019-Oct-10 22:00N 50°43' W 001°04'0 0.1
2019-Oct-10 21:27N 50°43' W 001°04'0 0.0
2019-Oct-10 20:57N 50°43' W 001°04'0 0.0
2019-Oct-10 20:27N 50°43' W 001°04'0 0.0
2019-Oct-10 20:00N 50°43' W 001°04'0 0.1
2019-Oct-10 19:30N 50°43' W 001°04'0 0.0
2019-Oct-10 18:57N 50°43' W 001°04'0 0.0
2019-Oct-10 18:27N 50°43' W 001°04'0 0.0
2019-Oct-10 17:57N 50°43' W 001°04'0 0.1
2019-Oct-10 17:21N 50°43' W 001°04'0 0.0
2019-Oct-10 16:59N 50°43' W 001°04'0 0.0
2019-Oct-10 16:30N 50°43' W 001°04'0 0.0
2019-Oct-10 15:59N 50°43' W 001°04'0 0.0
2019-Oct-10 15:29N 50°43' W 001°04'0 0.4
2019-Oct-10 15:00N 50°43' W 001°04'2 3.9
2019-Oct-10 14:30N 50°41' W 001°03'2 4.4
2019-Oct-10 14:00N 50°39' W 001°02'4 1.5
2019-Oct-10 11:24N 50°35' W 001°03'4 8.8
2019-Oct-10 11:00N 50°39' W 001°02'3 6.1
2019-Oct-10 10:30N 50°42' W 001°03'1 2.1
2019-Oct-10 09:59N 50°43' W 001°04'0 0.0
2019-Oct-10 09:26N 50°43' W 001°03'0 0.0
2019-Oct-10 08:59N 50°43' W 001°03'0 0.0
2019-Oct-10 08:29N 50°43' W 001°03'0 0.0
2019-Oct-10 07:59N 50°43' W 001°04'0 0.0
2019-Oct-10 07:26N 50°43' W 001°04'0 0.1
2019-Oct-10 06:59N 50°43' W 001°03'0 0.0
2019-Oct-10 06:29N 50°43' W 001°03'0 0.0
2019-Oct-10 05:59N 50°43' W 001°03'0 0.0
2019-Oct-10 05:26N 50°43' W 001°03'  

Dump ship's entire track history